sensor_id;sensor_type;location;lat;lon;timestamp;temperature;humidity
41985;DHT22;28319;48.116;10.818;2023-06-10T00:01:27;18.70;92.60
41985;DHT22;28319;48.116;10.818;2023-06-10T00:06:29;18.50;93.90
41985;DHT22;28319;48.116;10.818;2023-06-10T00:11:36;18.30;93.80
41985;DHT22;28319;48.116;10.818;2023-06-10T00:16:39;18.40;92.60
41985;DHT22;28319;48.116;10.818;2023-06-10T00:21:41;18.40;93.60
41985;DHT22;28319;48.116;10.818;2023-06-10T00:26:45;18.00;94.30
41985;DHT22;28319;48.116;10.818;2023-06-10T00:31:49;18.10;93.50
41985;DHT22;28319;48.116;10.818;2023-06-10T00:36:51;17.90;95.40
41985;DHT22;28319;48.116;10.818;2023-06-10T00:41:53;17.70;95.00
41985;DHT22;28319;48.116;10.818;2023-06-10T00:46:57;17.40;96.80
41985;DHT22;28319;48.116;10.818;2023-06-10T00:51:59;17.20;96.40
41985;DHT22;28319;48.116;10.818;2023-06-10T00:57:01;17.00;97.90
41985;DHT22;28319;48.116;10.818;2023-06-10T01:02:05;16.90;98.20
41985;DHT22;28319;48.116;10.818;2023-06-10T01:07:17;16.80;98.40
41985;DHT22;28319;48.116;10.818;2023-06-10T01:12:29;16.80;98.50
41985;DHT22;28319;48.116;10.818;2023-06-10T01:17:54;16.80;98.70
41985;DHT22;28319;48.116;10.818;2023-06-10T01:23:00;16.60;99.10
41985;DHT22;28319;48.116;10.818;2023-06-10T01:28:09;16.40;99.90
41985;DHT22;28319;48.116;10.818;2023-06-10T01:33:13;16.10;99.90
41985;DHT22;28319;48.116;10.818;2023-06-10T01:38:19;16.20;99.90
41985;DHT22;28319;48.116;10.818;2023-06-10T01:43:22;16.40;98.90
41985;DHT22;28319;48.116;10.818;2023-06-10T01:48:25;16.70;98.10
41985;DHT22;28319;48.116;10.818;2023-06-10T01:53:28;16.60;99.10
41985;DHT22;28319;48.116;10.818;2023-06-10T01:58:30;16.60;98.90
41985;DHT22;28319;48.116;10.818;2023-06-10T02:03:32;16.70;98.50
41985;DHT22;28319;48.116;10.818;2023-06-10T02:08:36;16.80;98.50
41985;DHT22;28319;48.116;10.818;2023-06-10T02:13:39;16.80;98.60
41985;DHT22;28319;48.116;10.818;2023-06-10T02:18:41;16.70;98.30
41985;DHT22;28319;48.116;10.818;2023-06-10T02:23:46;16.70;97.80
41985;DHT22;28319;48.116;10.818;2023-06-10T02:28:48;16.90;96.90
41985;DHT22;28319;48.116;10.818;2023-06-10T02:33:50;16.80;98.30
41985;DHT22;28319;48.116;10.818;2023-06-10T02:38:54;16.60;99.10
41985;DHT22;28319;48.116;10.818;2023-06-10T02:43:56;16.20;99.90
41985;DHT22;28319;48.116;10.818;2023-06-10T02:48:58;16.20;99.70
41985;DHT22;28319;48.116;10.818;2023-06-10T02:54:02;16.20;99.90
41985;DHT22;28319;48.116;10.818;2023-06-10T02:59:04;16.30;99.70
41985;DHT22;28319;48.116;10.818;2023-06-10T03:04:08;16.20;99.90
41985;DHT22;28319;48.116;10.818;2023-06-10T03:09:12;16.00;99.90
41985;DHT22;28319;48.116;10.818;2023-06-10T03:14:14;16.10;99.90
41985;DHT22;28319;48.116;10.818;2023-06-10T03:19:16;16.20;99.70
41985;DHT22;28319;48.116;10.818;2023-06-10T03:24:19;16.10;99.80
41985;DHT22;28319;48.116;10.818;2023-06-10T03:29:22;16.20;99.40
41985;DHT22;28319;48.116;10.818;2023-06-10T03:34:24;16.20;98.90
41985;DHT22;28319;48.116;10.818;2023-06-10T03:39:28;16.20;98.10
41985;DHT22;28319;48.116;10.818;2023-06-10T03:44:30;16.10;98.10
41985;DHT22;28319;48.116;10.818;2023-06-10T03:49:33;16.10;98.60
41985;DHT22;28319;48.116;10.818;2023-06-10T03:54:36;16.20;97.80
41985;DHT22;28319;48.116;10.818;2023-06-10T03:59:38;16.10;98.00
41985;DHT22;28319;48.116;10.818;2023-06-10T04:04:41;16.10;99.00
41985;DHT22;28319;48.116;10.818;2023-06-10T04:09:45;16.10;99.50
41985;DHT22;28319;48.116;10.818;2023-06-10T04:14:47;16.00;99.90
41985;DHT22;28319;48.116;10.818;2023-06-10T04:19:50;15.80;99.90
41985;DHT22;28319;48.116;10.818;2023-06-10T04:24:54;15.50;99.90
41985;DHT22;28319;48.116;10.818;2023-06-10T04:29:56;15.30;99.90
41985;DHT22;28319;48.116;10.818;2023-06-10T04:35:00;15.30;99.90
41985;DHT22;28319;48.116;10.818;2023-06-10T04:40:04;15.10;99.90
41985;DHT22;28319;48.116;10.818;2023-06-10T04:45:07;15.10;99.90
41985;DHT22;28319;48.116;10.818;2023-06-10T04:50:10;15.10;99.90
41985;DHT22;28319;48.116;10.818;2023-06-10T04:55:14;15.40;99.90
41985;DHT22;28319;48.116;10.818;2023-06-10T05:00:16;15.60;99.90
41985;DHT22;28319;48.116;10.818;2023-06-10T05:05:19;15.70;99.90
41985;DHT22;28319;48.116;10.818;2023-06-10T05:10:22;15.60;99.90
41985;DHT22;28319;48.116;10.818;2023-06-10T05:15:25;15.50;99.90
41985;DHT22;28319;48.116;10.818;2023-06-10T05:20:27;15.70;99.90
41985;DHT22;28319;48.116;10.818;2023-06-10T05:25:33;16.00;99.90
41985;DHT22;28319;48.116;10.818;2023-06-10T05:30:35;16.00;99.90
41985;DHT22;28319;48.116;10.818;2023-06-10T05:35:37;16.20;99.90
41985;DHT22;28319;48.116;10.818;2023-06-10T05:40:41;16.40;99.90
41985;DHT22;28319;48.116;10.818;2023-06-10T05:45:45;16.60;99.90
41985;DHT22;28319;48.116;10.818;2023-06-10T05:50:47;16.80;99.90
41985;DHT22;28319;48.116;10.818;2023-06-10T05:55:51;16.90;99.90
41985;DHT22;28319;48.116;10.818;2023-06-10T06:00:54;17.00;99.90
41985;DHT22;28319;48.116;10.818;2023-06-10T06:05:56;17.20;99.90
41985;DHT22;28319;48.116;10.818;2023-06-10T06:11:00;17.40;99.90
41985;DHT22;28319;48.116;10.818;2023-06-10T06:16:02;17.50;99.90
41985;DHT22;28319;48.116;10.818;2023-06-10T06:21:05;17.70;99.90
41985;DHT22;28319;48.116;10.818;2023-06-10T06:26:08;17.80;99.90
41985;DHT22;28319;48.116;10.818;2023-06-10T06:31:11;17.90;99.90
41985;DHT22;28319;48.116;10.818;2023-06-10T06:36:13;18.00;99.90
41985;DHT22;28319;48.116;10.818;2023-06-10T06:41:17;18.20;99.90
41985;DHT22;28319;48.116;10.818;2023-06-10T06:46:20;18.30;99.90
41985;DHT22;28319;48.116;10.818;2023-06-10T06:51:23;18.50;99.90
41985;DHT22;28319;48.116;10.818;2023-06-10T06:56:26;18.70;99.90
41985;DHT22;28319;48.116;10.818;2023-06-10T07:01:29;18.80;99.90
41985;DHT22;28319;48.116;10.818;2023-06-10T07:06:31;19.00;99.90
41985;DHT22;28319;48.116;10.818;2023-06-10T07:11:35;19.10;99.90
41985;DHT22;28319;48.116;10.818;2023-06-10T07:16:37;19.30;99.90
41985;DHT22;28319;48.116;10.818;2023-06-10T07:21:39;19.40;99.90
41985;DHT22;28319;48.116;10.818;2023-06-10T07:26:42;19.50;99.90
41985;DHT22;28319;48.116;10.818;2023-06-10T07:31:44;19.70;99.90
41985;DHT22;28319;48.116;10.818;2023-06-10T07:36:47;19.90;99.90
41985;DHT22;28319;48.116;10.818;2023-06-10T07:41:50;20.00;99.90
41985;DHT22;28319;48.116;10.818;2023-06-10T07:46:54;20.20;99.90
41985;DHT22;28319;48.116;10.818;2023-06-10T07:51:58;20.20;99.90
41985;DHT22;28319;48.116;10.818;2023-06-10T07:57:01;20.30;99.90
41985;DHT22;28319;48.116;10.818;2023-06-10T08:02:04;20.40;99.80
41985;DHT22;28319;48.116;10.818;2023-06-10T08:07:06;20.50;99.30
41985;DHT22;28319;48.116;10.818;2023-06-10T08:12:10;20.50;99.20
41985;DHT22;28319;48.116;10.818;2023-06-10T08:17:12;20.50;99.60
41985;DHT22;28319;48.116;10.818;2023-06-10T08:22:15;20.90;99.20
41985;DHT22;28319;48.116;10.818;2023-06-10T08:27:18;21.00;98.50
41985;DHT22;28319;48.116;10.818;2023-06-10T08:32:21;21.20;98.90
41985;DHT22;28319;48.116;10.818;2023-06-10T08:37:24;21.40;98.90
41985;DHT22;28319;48.116;10.818;2023-06-10T08:42:33;21.70;98.10
41985;DHT22;28319;48.116;10.818;2023-06-10T08:47:37;21.90;96.40
41985;DHT22;28319;48.116;10.818;2023-06-10T08:52:43;22.10;96.90
41985;DHT22;28319;48.116;10.818;2023-06-10T08:57:47;22.00;95.90
41985;DHT22;28319;48.116;10.818;2023-06-10T09:02:50;22.10;97.40
41985;DHT22;28319;48.116;10.818;2023-06-10T09:07:53;21.80;96.80
41985;DHT22;28319;48.116;10.818;2023-06-10T09:12:57;22.00;97.00
41985;DHT22;28319;48.116;10.818;2023-06-10T09:17:59;22.30;96.60
41985;DHT22;28319;48.116;10.818;2023-06-10T09:23:01;22.40;96.50
41985;DHT22;28319;48.116;10.818;2023-06-10T09:28:13;22.50;96.40
41985;DHT22;28319;48.116;10.818;2023-06-10T09:33:16;22.60;96.00
41985;DHT22;28319;48.116;10.818;2023-06-10T09:38:20;22.90;95.50
41985;DHT22;28319;48.116;10.818;2023-06-10T09:43:38;22.90;95.50
41985;DHT22;28319;48.116;10.818;2023-06-10T09:48:41;22.90;95.90
41985;DHT22;28319;48.116;10.818;2023-06-10T09:53:48;22.80;95.90
41985;DHT22;28319;48.116;10.818;2023-06-10T09:58:54;23.00;95.30
41985;DHT22;28319;48.116;10.818;2023-06-10T10:03:58;23.10;94.40
41985;DHT22;28319;48.116;10.818;2023-06-10T10:09:00;23.60;94.70
41985;DHT22;28319;48.116;10.818;2023-06-10T10:14:06;23.70;93.90
41985;DHT22;28319;48.116;10.818;2023-06-10T10:19:14;24.00;94.00
41985;DHT22;28319;48.116;10.818;2023-06-10T10:24:19;23.90;93.50
41985;DHT22;28319;48.116;10.818;2023-06-10T10:29:26;24.50;92.50
41985;DHT22;28319;48.116;10.818;2023-06-10T10:34:39;24.80;92.90
41985;DHT22;28319;48.116;10.818;2023-06-10T10:39:45;25.20;92.60
41985;DHT22;28319;48.116;10.818;2023-06-10T10:44:49;25.20;91.90
41985;DHT22;28319;48.116;10.818;2023-06-10T10:49:52;25.40;91.60
41985;DHT22;28319;48.116;10.818;2023-06-10T10:54:55;25.20;91.30
41985;DHT22;28319;48.116;10.818;2023-06-10T10:59:59;25.10;90.40
41985;DHT22;28319;48.116;10.818;2023-06-10T11:05:02;25.80;91.40
41985;DHT22;28319;48.116;10.818;2023-06-10T11:10:09;25.80;90.60
41985;DHT22;28319;48.116;10.818;2023-06-10T11:15:13;25.80;90.40
41985;DHT22;28319;48.116;10.818;2023-06-10T11:20:41;25.50;90.40
41985;DHT22;28319;48.116;10.818;2023-06-10T11:25:43;25.40;90.10
41985;DHT22;28319;48.116;10.818;2023-06-10T11:30:57;25.70;90.50
41985;DHT22;28319;48.116;10.818;2023-06-10T11:35:59;26.00;89.00
41985;DHT22;28319;48.116;10.818;2023-06-10T11:41:02;26.00;88.70
41985;DHT22;28319;48.116;10.818;2023-06-10T11:46:06;26.10;87.00
41985;DHT22;28319;48.116;10.818;2023-06-10T11:51:09;26.30;84.80
41985;DHT22;28319;48.116;10.818;2023-06-10T11:56:11;26.00;85.40
41985;DHT22;28319;48.116;10.818;2023-06-10T12:01:21;26.20;86.00
41985;DHT22;28319;48.116;10.818;2023-06-10T12:06:24;26.40;85.50
41985;DHT22;28319;48.116;10.818;2023-06-10T12:11:26;26.60;85.60
41985;DHT22;28319;48.116;10.818;2023-06-10T12:16:29;26.90;84.20
41985;DHT22;28319;48.116;10.818;2023-06-10T12:21:32;26.80;85.10
41985;DHT22;28319;48.116;10.818;2023-06-10T12:26:40;27.10;86.40
41985;DHT22;28319;48.116;10.818;2023-06-10T12:32:00;27.00;85.60
41985;DHT22;28319;48.116;10.818;2023-06-10T12:37:05;27.30;83.70
41985;DHT22;28319;48.116;10.818;2023-06-10T12:42:09;27.30;83.50
41985;DHT22;28319;48.116;10.818;2023-06-10T12:47:12;27.30;85.30
41985;DHT22;28319;48.116;10.818;2023-06-10T12:52:14;27.30;84.60
41985;DHT22;28319;48.116;10.818;2023-06-10T12:57:17;27.50;84.30
41985;DHT22;28319;48.116;10.818;2023-06-10T13:02:21;27.60;81.50
41985;DHT22;28319;48.116;10.818;2023-06-10T13:07:24;27.60;80.80
41985;DHT22;28319;48.116;10.818;2023-06-10T13:12:27;26.90;84.40
41985;DHT22;28319;48.116;10.818;2023-06-10T13:17:31;26.70;84.50
41985;DHT22;28319;48.116;10.818;2023-06-10T13:22:35;27.10;84.00
41985;DHT22;28319;48.116;10.818;2023-06-10T13:27:37;27.00;83.00
41985;DHT22;28319;48.116;10.818;2023-06-10T13:32:41;27.10;82.30
41985;DHT22;28319;48.116;10.818;2023-06-10T13:37:44;27.10;83.50
41985;DHT22;28319;48.116;10.818;2023-06-10T13:42:46;27.30;81.50
41985;DHT22;28319;48.116;10.818;2023-06-10T13:47:54;27.20;80.40
41985;DHT22;28319;48.116;10.818;2023-06-10T13:52:58;27.20;83.20
41985;DHT22;28319;48.116;10.818;2023-06-10T13:58:00;27.40;85.40
41985;DHT22;28319;48.116;10.818;2023-06-10T14:03:04;27.10;85.40
41985;DHT22;28319;48.116;10.818;2023-06-10T14:08:06;26.90;85.30
41985;DHT22;28319;48.116;10.818;2023-06-10T14:13:08;27.10;83.10
41985;DHT22;28319;48.116;10.818;2023-06-10T14:18:12;27.10;85.20
41985;DHT22;28319;48.116;10.818;2023-06-10T14:23:14;26.60;85.20
41985;DHT22;28319;48.116;10.818;2023-06-10T14:28:16;26.10;86.90
41985;DHT22;28319;48.116;10.818;2023-06-10T14:33:20;26.30;87.20
41985;DHT22;28319;48.116;10.818;2023-06-10T14:38:25;26.40;85.00
41985;DHT22;28319;48.116;10.818;2023-06-10T14:43:27;26.70;85.90
41985;DHT22;28319;48.116;10.818;2023-06-10T14:48:30;26.70;84.60
41985;DHT22;28319;48.116;10.818;2023-06-10T14:53:32;26.90;84.20
41985;DHT22;28319;48.116;10.818;2023-06-10T14:58:37;26.80;84.20
41985;DHT22;28319;48.116;10.818;2023-06-10T15:03:41;26.20;84.50
41985;DHT22;28319;48.116;10.818;2023-06-10T15:08:43;25.70;84.80
41985;DHT22;28319;48.116;10.818;2023-06-10T15:13:46;26.00;85.40
41985;DHT22;28319;48.116;10.818;2023-06-10T15:18:49;26.10;84.10
41985;DHT22;28319;48.116;10.818;2023-06-10T15:23:51;26.10;84.80
41985;DHT22;28319;48.116;10.818;2023-06-10T15:28:53;25.90;85.20
41985;DHT22;28319;48.116;10.818;2023-06-10T15:33:58;25.90;84.30
41985;DHT22;28319;48.116;10.818;2023-06-10T15:39:02;25.80;84.70
41985;DHT22;28319;48.116;10.818;2023-06-10T15:44:07;25.90;85.30
41985;DHT22;28319;48.116;10.818;2023-06-10T15:49:10;25.80;87.20
41985;DHT22;28319;48.116;10.818;2023-06-10T15:54:12;25.40;87.10
41985;DHT22;28319;48.116;10.818;2023-06-10T15:59:14;24.90;88.70
41985;DHT22;28319;48.116;10.818;2023-06-10T16:04:18;24.60;88.70
41985;DHT22;28319;48.116;10.818;2023-06-10T16:09:20;24.80;89.20
41985;DHT22;28319;48.116;10.818;2023-06-10T16:14:23;24.90;89.00
41985;DHT22;28319;48.116;10.818;2023-06-10T16:19:26;25.00;87.80
41985;DHT22;28319;48.116;10.818;2023-06-10T16:24:28;24.90;87.40
41985;DHT22;28319;48.116;10.818;2023-06-10T16:29:30;25.00;87.10
41985;DHT22;28319;48.116;10.818;2023-06-10T16:34:34;25.00;87.60
41985;DHT22;28319;48.116;10.818;2023-06-10T16:39:36;25.00;87.40
41985;DHT22;28319;48.116;10.818;2023-06-10T16:44:39;24.90;87.40
41985;DHT22;28319;48.116;10.818;2023-06-10T16:49:42;24.70;87.50
41985;DHT22;28319;48.116;10.818;2023-06-10T16:54:45;24.60;88.80
41985;DHT22;28319;48.116;10.818;2023-06-10T16:59:47;24.70;88.80
41985;DHT22;28319;48.116;10.818;2023-06-10T17:04:51;24.60;87.40
41985;DHT22;28319;48.116;10.818;2023-06-10T17:09:53;24.40;86.30
41985;DHT22;28319;48.116;10.818;2023-06-10T17:14:56;24.30;86.60
41985;DHT22;28319;48.116;10.818;2023-06-10T17:19:59;24.40;87.80
41985;DHT22;28319;48.116;10.818;2023-06-10T17:25:03;24.30;87.90
41985;DHT22;28319;48.116;10.818;2023-06-10T17:30:07;24.30;88.10
41985;DHT22;28319;48.116;10.818;2023-06-10T17:35:11;24.10;88.90
41985;DHT22;28319;48.116;10.818;2023-06-10T17:40:13;23.80;89.20
41985;DHT22;28319;48.116;10.818;2023-06-10T17:45:15;23.60;90.20
41985;DHT22;28319;48.116;10.818;2023-06-10T17:50:19;23.30;90.10
41985;DHT22;28319;48.116;10.818;2023-06-10T17:55:22;23.20;88.90
41985;DHT22;28319;48.116;10.818;2023-06-10T18:00:24;23.10;89.50
41985;DHT22;28319;48.116;10.818;2023-06-10T18:05:28;23.20;90.10
41985;DHT22;28319;48.116;10.818;2023-06-10T18:10:30;23.00;90.30
41985;DHT22;28319;48.116;10.818;2023-06-10T18:15:32;23.00;90.20
41985;DHT22;28319;48.116;10.818;2023-06-10T18:20:36;22.90;90.30
41985;DHT22;28319;48.116;10.818;2023-06-10T18:25:38;22.80;90.40
41985;DHT22;28319;48.116;10.818;2023-06-10T18:30:42;22.80;90.50
41985;DHT22;28319;48.116;10.818;2023-06-10T18:35:45;22.80;90.90
41985;DHT22;28319;48.116;10.818;2023-06-10T18:40:47;22.80;91.00
41985;DHT22;28319;48.116;10.818;2023-06-10T18:45:49;22.70;91.30
41985;DHT22;28319;48.116;10.818;2023-06-10T18:50:53;22.50;91.80
41985;DHT22;28319;48.116;10.818;2023-06-10T18:55:55;22.40;92.20
41985;DHT22;28319;48.116;10.818;2023-06-10T19:01:03;22.40;92.40
41985;DHT22;28319;48.116;10.818;2023-06-10T19:06:07;22.20;93.10
41985;DHT22;28319;48.116;10.818;2023-06-10T19:11:09;22.10;93.40
41985;DHT22;28319;48.116;10.818;2023-06-10T19:16:12;22.00;93.60
41985;DHT22;28319;48.116;10.818;2023-06-10T19:21:16;21.90;93.50
41985;DHT22;28319;48.116;10.818;2023-06-10T19:26:19;21.90;93.50
41985;DHT22;28319;48.116;10.818;2023-06-10T19:31:21;21.80;93.50
41985;DHT22;28319;48.116;10.818;2023-06-10T19:36:25;21.80;93.60
41985;DHT22;28319;48.116;10.818;2023-06-10T19:41:28;21.70;93.60
41985;DHT22;28319;48.116;10.818;2023-06-10T19:46:30;21.60;94.20
41985;DHT22;28319;48.116;10.818;2023-06-10T19:51:34;21.50;94.60
41985;DHT22;28319;48.116;10.818;2023-06-10T19:56:36;21.30;94.90
41985;DHT22;28319;48.116;10.818;2023-06-10T20:01:38;21.20;95.10
41985;DHT22;28319;48.116;10.818;2023-06-10T20:06:42;21.10;95.30
41985;DHT22;28319;48.116;10.818;2023-06-10T20:11:45;21.00;95.40
41985;DHT22;28319;48.116;10.818;2023-06-10T20:16:47;21.00;95.60
41985;DHT22;28319;48.116;10.818;2023-06-10T20:21:51;20.90;95.90
41985;DHT22;28319;48.116;10.818;2023-06-10T20:26:53;20.80;96.20
41985;DHT22;28319;48.116;10.818;2023-06-10T20:31:55;20.80;96.10
41985;DHT22;28319;48.116;10.818;2023-06-10T20:36:59;20.80;96.40
41985;DHT22;28319;48.116;10.818;2023-06-10T20:42:02;20.50;96.80
41985;DHT22;28319;48.116;10.818;2023-06-10T20:47:04;20.50;96.90
41985;DHT22;28319;48.116;10.818;2023-06-10T20:52:08;20.50;96.80
41985;DHT22;28319;48.116;10.818;2023-06-10T20:57:10;20.40;96.70
41985;DHT22;28319;48.116;10.818;2023-06-10T21:02:13;20.50;96.80
41985;DHT22;28319;48.116;10.818;2023-06-10T21:07:16;20.30;97.30
41985;DHT22;28319;48.116;10.818;2023-06-10T21:12:18;20.30;97.50
41985;DHT22;28319;48.116;10.818;2023-06-10T21:17:23;20.30;97.30
41985;DHT22;28319;48.116;10.818;2023-06-10T21:22:26;20.10;97.60
41985;DHT22;28319;48.116;10.818;2023-06-10T21:27:29;20.10;98.10
41985;DHT22;28319;48.116;10.818;2023-06-10T21:32:31;19.90;97.90
41985;DHT22;28319;48.116;10.818;2023-06-10T21:37:35;19.80;98.60
41985;DHT22;28319;48.116;10.818;2023-06-10T21:42:37;19.70;99.30
41985;DHT22;28319;48.116;10.818;2023-06-10T21:47:39;19.50;99.70
41985;DHT22;28319;48.116;10.818;2023-06-10T21:52:43;19.50;99.80
41985;DHT22;28319;48.116;10.818;2023-06-10T21:57:45;19.30;99.90
41985;DHT22;28319;48.116;10.818;2023-06-10T22:02:48;19.40;99.90
41985;DHT22;28319;48.116;10.818;2023-06-10T22:07:51;19.40;99.90
41985;DHT22;28319;48.116;10.818;2023-06-10T22:12:53;19.30;99.90
41985;DHT22;28319;48.116;10.818;2023-06-10T22:17:55;19.20;99.90
41985;DHT22;28319;48.116;10.818;2023-06-10T22:22:59;19.20;99.90
41985;DHT22;28319;48.116;10.818;2023-06-10T22:28:01;19.30;99.90
41985;DHT22;28319;48.116;10.818;2023-06-10T22:33:04;19.20;99.90
41985;DHT22;28319;48.116;10.818;2023-06-10T22:38:07;19.30;99.90
41985;DHT22;28319;48.116;10.818;2023-06-10T22:43:10;19.10;99.90
41985;DHT22;28319;48.116;10.818;2023-06-10T22:48:12;19.00;99.90
41985;DHT22;28319;48.116;10.818;2023-06-10T22:53:15;19.00;99.90
41985;DHT22;28319;48.116;10.818;2023-06-10T22:58:18;18.90;99.90
41985;DHT22;28319;48.116;10.818;2023-06-10T23:03:20;18.60;99.90
41985;DHT22;28319;48.116;10.818;2023-06-10T23:08:24;18.60;99.90
41985;DHT22;28319;48.116;10.818;2023-06-10T23:13:26;18.40;99.90
41985;DHT22;28319;48.116;10.818;2023-06-10T23:18:29;18.30;99.90
41985;DHT22;28319;48.116;10.818;2023-06-10T23:23:33;18.40;99.90
41985;DHT22;28319;48.116;10.818;2023-06-10T23:28:35;18.40;99.90
41985;DHT22;28319;48.116;10.818;2023-06-10T23:33:37;18.30;99.90
41985;DHT22;28319;48.116;10.818;2023-06-10T23:38:42;18.00;99.90
41985;DHT22;28319;48.116;10.818;2023-06-10T23:43:44;18.00;99.90
41985;DHT22;28319;48.116;10.818;2023-06-10T23:48:46;18.10;99.90
41985;DHT22;28319;48.116;10.818;2023-06-10T23:53:50;18.00;99.90
41985;DHT22;28319;48.116;10.818;2023-06-10T23:58:53;18.00;99.90
